sensor_id;sensor_type;location;lat;lon;timestamp;pressure;altitude;pressure_sealevel;temperature;humidity
62800;BME280;48842;51.046;13.796;2022-10-15T00:01:36;99747.09;;;17.10;64.28
62800;BME280;48842;51.046;13.796;2022-10-15T00:04:01;99749.78;;;17.08;64.61
62800;BME280;48842;51.046;13.796;2022-10-15T00:06:27;99748.91;;;17.08;64.59
62800;BME280;48842;51.046;13.796;2022-10-15T00:08:52;99757.72;;;17.08;64.41
62800;BME280;48842;51.046;13.796;2022-10-15T00:11:19;99752.47;;;17.07;64.57
62800;BME280;48842;51.046;13.796;2022-10-15T00:13:45;99750.75;;;17.06;64.67
62800;BME280;48842;51.046;13.796;2022-10-15T00:16:15;99754.28;;;17.05;64.53
62800;BME280;48842;51.046;13.796;2022-10-15T00:18:40;99757.78;;;17.07;64.43
62800;BME280;48842;51.046;13.796;2022-10-15T00:21:10;99759.53;;;17.06;64.55
62800;BME280;48842;51.046;13.796;2022-10-15T00:23:36;99747.19;;;17.07;64.35
62800;BME280;48842;51.046;13.796;2022-10-15T00:26:07;99742.81;;;17.06;64.65
62800;BME280;48842;51.046;13.796;2022-10-15T00:28:33;99748.09;;;17.06;64.59
62800;BME280;48842;51.046;13.796;2022-10-15T00:31:03;99753.38;;;17.06;64.68
62800;BME280;48842;51.046;13.796;2022-10-15T00:33:29;99752.50;;;17.05;64.81
62800;BME280;48842;51.046;13.796;2022-10-15T00:36:21;99750.78;;;17.04;64.89
62800;BME280;48842;51.046;13.796;2022-10-15T00:38:48;99747.25;;;17.04;64.68
62800;BME280;48842;51.046;13.796;2022-10-15T00:41:18;99742.91;;;17.03;64.79
62800;BME280;48842;51.046;13.796;2022-10-15T00:43:52;99746.50;;;17.00;64.95
62800;BME280;48842;51.046;13.796;2022-10-15T00:46:24;99735.16;;;16.97;65.29
62800;BME280;48842;51.046;13.796;2022-10-15T00:49:16;99737.78;;;16.97;64.91
62800;BME280;48842;51.046;13.796;2022-10-15T00:51:56;99738.72;;;16.96;64.80
62800;BME280;48842;51.046;13.796;2022-10-15T00:54:22;99733.44;;;16.96;64.65
62800;BME280;48842;51.046;13.796;2022-10-15T00:56:49;99728.16;;;16.96;64.86
62800;BME280;48842;51.046;13.796;2022-10-15T00:59:17;99728.16;;;16.96;64.84
62800;BME280;48842;51.046;13.796;2022-10-15T01:01:45;99725.53;;;16.94;64.88
62800;BME280;48842;51.046;13.796;2022-10-15T01:04:10;99727.25;;;16.95;64.93
62800;BME280;48842;51.046;13.796;2022-10-15T01:06:37;99724.66;;;16.93;65.07
62800;BME280;48842;51.046;13.796;2022-10-15T01:09:03;99728.25;;;16.92;65.09
62800;BME280;48842;51.046;13.796;2022-10-15T01:11:39;99723.84;;;16.91;64.97
62800;BME280;48842;51.046;13.796;2022-10-15T01:14:13;99715.91;;;16.91;65.06
62800;BME280;48842;51.046;13.796;2022-10-15T01:16:49;99713.31;;;16.90;65.15
62800;BME280;48842;51.046;13.796;2022-10-15T01:22:10;99700.16;;;16.87;65.32
62800;BME280;48842;51.046;13.796;2022-10-15T01:27:31;99707.19;;;16.89;65.15
62800;BME280;48842;51.046;13.796;2022-10-15T01:30:13;99702.88;;;16.85;65.39
62800;BME280;48842;51.046;13.796;2022-10-15T01:32:47;99702.88;;;16.85;65.45
62800;BME280;48842;51.046;13.796;2022-10-15T01:35:43;99706.28;;;16.89;65.67
62800;BME280;48842;51.046;13.796;2022-10-15T01:38:21;99700.16;;;16.88;65.47
62800;BME280;48842;51.046;13.796;2022-10-15T01:41:00;99704.56;;;16.88;65.69
62800;BME280;48842;51.046;13.796;2022-10-15T01:43:34;99698.44;;;16.86;65.82
62800;BME280;48842;51.046;13.796;2022-10-15T01:46:06;99706.41;;;16.84;66.03
62800;BME280;48842;51.046;13.796;2022-10-15T01:48:35;99702.97;;;16.82;65.90
62800;BME280;48842;51.046;13.796;2022-10-15T01:51:04;99694.16;;;16.82;66.06
62800;BME280;48842;51.046;13.796;2022-10-15T01:53:30;99700.38;;;16.81;66.08
62800;BME280;48842;51.046;13.796;2022-10-15T01:56:01;99700.41;;;16.79;66.24
62800;BME280;48842;51.046;13.796;2022-10-15T01:58:29;99682.81;;;16.78;66.09
62800;BME280;48842;51.046;13.796;2022-10-15T02:00:56;99691.66;;;16.77;66.08
62800;BME280;48842;51.046;13.796;2022-10-15T02:03:22;99692.56;;;16.76;66.19
62800;BME280;48842;51.046;13.796;2022-10-15T02:05:56;99693.50;;;16.75;66.51
62800;BME280;48842;51.046;13.796;2022-10-15T02:08:47;99691.75;;;16.74;66.59
62800;BME280;48842;51.046;13.796;2022-10-15T02:11:17;99682.97;;;16.73;66.53
62800;BME280;48842;51.046;13.796;2022-10-15T02:13:50;99684.72;;;16.73;66.54
62800;BME280;48842;51.046;13.796;2022-10-15T02:16:22;99690.03;;;16.73;66.56
62800;BME280;48842;51.046;13.796;2022-10-15T02:19:05;99676.00;;;16.71;66.56
62800;BME280;48842;51.046;13.796;2022-10-15T02:21:46;99688.38;;;16.69;66.74
62800;BME280;48842;51.046;13.796;2022-10-15T02:24:16;99679.53;;;16.70;66.53
62800;BME280;48842;51.046;13.796;2022-10-15T02:26:44;99676.09;;;16.68;66.51
62800;BME280;48842;51.046;13.796;2022-10-15T02:29:12;99671.56;;;16.71;66.65
62800;BME280;48842;51.046;13.796;2022-10-15T02:31:41;99660.94;;;16.73;66.38
62800;BME280;48842;51.046;13.796;2022-10-15T02:34:12;99657.44;;;16.72;66.63
62800;BME280;48842;51.046;13.796;2022-10-15T02:36:39;99651.22;;;16.73;66.40
62800;BME280;48842;51.046;13.796;2022-10-15T02:39:06;99644.16;;;16.74;66.22
62800;BME280;48842;51.046;13.796;2022-10-15T02:41:35;99648.53;;;16.75;66.36
62800;BME280;48842;51.046;13.796;2022-10-15T02:44:02;99641.47;;;16.75;66.35
62800;BME280;48842;51.046;13.796;2022-10-15T02:46:27;99637.22;;;16.70;66.37
62800;BME280;48842;51.046;13.796;2022-10-15T02:48:53;99638.19;;;16.67;66.49
62800;BME280;48842;51.046;13.796;2022-10-15T02:51:18;99644.34;;;16.68;66.66
62800;BME280;48842;51.046;13.796;2022-10-15T02:53:43;99634.63;;;16.68;66.57
62800;BME280;48842;51.046;13.796;2022-10-15T02:56:08;99635.50;;;16.69;66.29
62800;BME280;48842;51.046;13.796;2022-10-15T02:58:34;99643.38;;;16.70;66.53
62800;BME280;48842;51.046;13.796;2022-10-15T03:00:59;99642.50;;;16.70;66.51
62800;BME280;48842;51.046;13.796;2022-10-15T03:03:24;99631.94;;;16.70;66.36
62800;BME280;48842;51.046;13.796;2022-10-15T03:05:49;99635.44;;;16.70;66.34
62800;BME280;48842;51.046;13.796;2022-10-15T03:08:15;99631.88;;;16.71;66.28
62800;BME280;48842;51.046;13.796;2022-10-15T03:10:40;99636.31;;;16.71;66.16
62800;BME280;48842;51.046;13.796;2022-10-15T03:13:05;99625.75;;;16.71;66.21
62800;BME280;48842;51.046;13.796;2022-10-15T03:15:31;99619.56;;;16.70;65.99
62800;BME280;48842;51.046;13.796;2022-10-15T03:17:57;99623.09;;;16.71;66.15
62800;BME280;48842;51.046;13.796;2022-10-15T03:20:22;99620.44;;;16.71;66.02
62800;BME280;48842;51.046;13.796;2022-10-15T03:22:47;99622.19;;;16.72;66.07
62800;BME280;48842;51.046;13.796;2022-10-15T03:25:13;99617.81;;;16.71;66.14
62800;BME280;48842;51.046;13.796;2022-10-15T03:27:38;99621.25;;;16.73;65.98
62800;BME280;48842;51.046;13.796;2022-10-15T03:30:04;99609.81;;;16.72;66.09
62800;BME280;48842;51.046;13.796;2022-10-15T03:32:29;99620.41;;;16.72;66.04
62800;BME280;48842;51.046;13.796;2022-10-15T03:34:55;99622.19;;;16.72;65.98
62800;BME280;48842;51.046;13.796;2022-10-15T03:37:20;99619.56;;;16.72;66.00
62800;BME280;48842;51.046;13.796;2022-10-15T03:39:45;99624.84;;;16.72;66.17
62800;BME280;48842;51.046;13.796;2022-10-15T03:42:10;99619.56;;;16.72;65.91
62800;BME280;48842;51.046;13.796;2022-10-15T03:44:36;99626.53;;;16.73;66.07
62800;BME280;48842;51.046;13.796;2022-10-15T03:47:01;99617.81;;;16.71;66.15
62800;BME280;48842;51.046;13.796;2022-10-15T03:49:26;99616.00;;;16.71;66.10
62800;BME280;48842;51.046;13.796;2022-10-15T03:51:51;99623.91;;;16.73;65.98
62800;BME280;48842;51.046;13.796;2022-10-15T03:54:17;99620.41;;;16.72;66.14
62800;BME280;48842;51.046;13.796;2022-10-15T03:56:42;99628.34;;;16.72;66.08
62800;BME280;48842;51.046;13.796;2022-10-15T03:59:07;99623.91;;;16.73;66.28
62800;BME280;48842;51.046;13.796;2022-10-15T04:01:32;99620.41;;;16.72;66.18
62800;BME280;48842;51.046;13.796;2022-10-15T04:03:58;99618.59;;;16.73;66.10
62800;BME280;48842;51.046;13.796;2022-10-15T04:06:23;99615.97;;;16.73;66.00
62800;BME280;48842;51.046;13.796;2022-10-15T04:08:48;99627.44;;;16.73;66.02
62800;BME280;48842;51.046;13.796;2022-10-15T04:11:14;99621.25;;;16.73;65.98
62800;BME280;48842;51.046;13.796;2022-10-15T04:13:39;99628.28;;;16.74;65.97
62800;BME280;48842;51.046;13.796;2022-10-15T04:16:05;99615.97;;;16.73;65.89
62800;BME280;48842;51.046;13.796;2022-10-15T04:18:30;99620.34;;;16.74;65.86
62800;BME280;48842;51.046;13.796;2022-10-15T04:21:00;99624.78;;;16.73;65.83
62800;BME280;48842;51.046;13.796;2022-10-15T04:23:25;99624.72;;;16.75;65.79
62800;BME280;48842;51.046;13.796;2022-10-15T04:25:50;99622.09;;;16.75;65.88
62800;BME280;48842;51.046;13.796;2022-10-15T04:28:16;99620.28;;;16.75;65.70
62800;BME280;48842;51.046;13.796;2022-10-15T04:30:41;99629.09;;;16.76;65.58
62800;BME280;48842;51.046;13.796;2022-10-15T04:33:06;99627.38;;;16.75;65.74
62800;BME280;48842;51.046;13.796;2022-10-15T04:35:32;99619.44;;;16.75;65.73
62800;BME280;48842;51.046;13.796;2022-10-15T04:37:59;99625.59;;;16.75;65.83
62800;BME280;48842;51.046;13.796;2022-10-15T04:40:25;99624.78;;;16.73;65.89
62800;BME280;48842;51.046;13.796;2022-10-15T04:42:50;99620.34;;;16.74;65.88
62800;BME280;48842;51.046;13.796;2022-10-15T04:45:16;99623.03;;;16.72;66.00
62800;BME280;48842;51.046;13.796;2022-10-15T04:47:41;99608.97;;;16.72;66.22
62800;BME280;48842;51.046;13.796;2022-10-15T04:50:07;99614.28;;;16.70;66.13
62800;BME280;48842;51.046;13.796;2022-10-15T04:52:33;99616.06;;;16.70;66.63
62800;BME280;48842;51.046;13.796;2022-10-15T04:54:59;99609.03;;;16.69;66.64
62800;BME280;48842;51.046;13.796;2022-10-15T04:57:27;99608.25;;;16.67;66.88
62800;BME280;48842;51.046;13.796;2022-10-15T04:59:52;99599.47;;;16.66;66.80
62800;BME280;48842;51.046;13.796;2022-10-15T05:02:17;99602.16;;;16.65;67.04
62800;BME280;48842;51.046;13.796;2022-10-15T05:04:43;99599.59;;;16.62;67.04
62800;BME280;48842;51.046;13.796;2022-10-15T05:07:08;99607.50;;;16.62;67.17
62800;BME280;48842;51.046;13.796;2022-10-15T05:09:33;99601.41;;;16.60;67.21
62800;BME280;48842;51.046;13.796;2022-10-15T05:11:59;99601.41;;;16.60;67.30
62800;BME280;48842;51.046;13.796;2022-10-15T05:14:24;99611.19;;;16.57;67.34
62800;BME280;48842;51.046;13.796;2022-10-15T05:16:49;99609.47;;;16.56;67.32
62800;BME280;48842;51.046;13.796;2022-10-15T05:19:14;99614.75;;;16.56;67.53
62800;BME280;48842;51.046;13.796;2022-10-15T05:21:41;99627.13;;;16.56;67.64
62800;BME280;48842;51.046;13.796;2022-10-15T05:24:06;99617.38;;;16.56;67.70
62800;BME280;48842;51.046;13.796;2022-10-15T05:26:31;99624.53;;;16.54;67.68
62800;BME280;48842;51.046;13.796;2022-10-15T05:28:57;99614.84;;;16.53;67.76
62800;BME280;48842;51.046;13.796;2022-10-15T05:31:25;99613.13;;;16.52;68.01
62800;BME280;48842;51.046;13.796;2022-10-15T05:33:52;99614.91;;;16.52;67.86
62800;BME280;48842;51.046;13.796;2022-10-15T05:36:26;99613.16;;;16.51;68.13
62800;BME280;48842;51.046;13.796;2022-10-15T05:38:57;99611.38;;;16.51;67.87
62800;BME280;48842;51.046;13.796;2022-10-15T05:41:24;99621.09;;;16.51;68.08
62800;BME280;48842;51.046;13.796;2022-10-15T05:43:51;99610.53;;;16.51;67.97
62800;BME280;48842;51.046;13.796;2022-10-15T05:46:17;99613.22;;;16.49;68.19
62800;BME280;48842;51.046;13.796;2022-10-15T05:48:42;99616.72;;;16.50;68.00
62800;BME280;48842;51.046;13.796;2022-10-15T05:51:11;99620.25;;;16.50;68.21
62800;BME280;48842;51.046;13.796;2022-10-15T05:53:37;99614.06;;;16.50;68.29
62800;BME280;48842;51.046;13.796;2022-10-15T05:56:03;99614.94;;;16.50;68.18
62800;BME280;48842;51.046;13.796;2022-10-15T05:58:31;99618.44;;;16.51;68.12
62800;BME280;48842;51.046;13.796;2022-10-15T06:00:58;99617.56;;;16.52;68.33
62800;BME280;48842;51.046;13.796;2022-10-15T06:03:24;99613.13;;;16.52;68.11
62800;BME280;48842;51.046;13.796;2022-10-15T06:05:50;99616.59;;;16.54;68.02
62800;BME280;48842;51.046;13.796;2022-10-15T06:08:15;99617.44;;;16.55;68.10
62800;BME280;48842;51.046;13.796;2022-10-15T06:10:41;99609.50;;;16.55;68.26
62800;BME280;48842;51.046;13.796;2022-10-15T06:13:07;99604.22;;;16.55;68.19
62800;BME280;48842;51.046;13.796;2022-10-15T06:15:32;99610.38;;;16.55;68.31
62800;BME280;48842;51.046;13.796;2022-10-15T06:17:59;99606.81;;;16.56;68.14
62800;BME280;48842;51.046;13.796;2022-10-15T06:20:24;99612.97;;;16.57;68.22
62800;BME280;48842;51.046;13.796;2022-10-15T06:22:50;99618.19;;;16.58;68.25
62800;BME280;48842;51.046;13.796;2022-10-15T06:25:15;99618.19;;;16.58;68.12
62800;BME280;48842;51.046;13.796;2022-10-15T06:27:40;99617.28;;;16.60;67.98
62800;BME280;48842;51.046;13.796;2022-10-15T06:30:06;99612.84;;;16.60;67.99
62800;BME280;48842;51.046;13.796;2022-10-15T06:32:32;99619.78;;;16.64;68.07
62800;BME280;48842;51.046;13.796;2022-10-15T06:34:57;99628.53;;;16.66;68.07
62800;BME280;48842;51.046;13.796;2022-10-15T06:37:23;99635.50;;;16.69;67.97
62800;BME280;48842;51.046;13.796;2022-10-15T06:39:48;99645.16;;;16.70;68.13
62800;BME280;48842;51.046;13.796;2022-10-15T06:42:13;99639.75;;;16.73;68.07
62800;BME280;48842;51.046;13.796;2022-10-15T06:44:39;99639.66;;;16.76;68.02
62800;BME280;48842;51.046;13.796;2022-10-15T06:47:04;99637.84;;;16.78;67.97
62800;BME280;48842;51.046;13.796;2022-10-15T06:49:30;99641.28;;;16.80;67.77
62800;BME280;48842;51.046;13.796;2022-10-15T06:51:55;99649.13;;;16.83;67.75
62800;BME280;48842;51.046;13.796;2022-10-15T06:54:20;99649.03;;;16.86;67.77
62800;BME280;48842;51.046;13.796;2022-10-15T06:56:45;99647.25;;;16.88;67.59
62800;BME280;48842;51.046;13.796;2022-10-15T06:59:11;99649.78;;;16.91;67.55
62800;BME280;48842;51.046;13.796;2022-10-15T07:01:36;99647.94;;;16.93;67.42
62800;BME280;48842;51.046;13.796;2022-10-15T07:04:01;99643.47;;;16.96;67.44
62800;BME280;48842;51.046;13.796;2022-10-15T07:06:27;99655.75;;;16.97;67.30
62800;BME280;48842;51.046;13.796;2022-10-15T07:08:52;99659.25;;;16.99;67.06
62800;BME280;48842;51.046;13.796;2022-10-15T07:11:17;99659.19;;;17.00;67.00
62800;BME280;48842;51.046;13.796;2022-10-15T07:13:42;99654.69;;;17.02;67.07
62800;BME280;48842;51.046;13.796;2022-10-15T07:16:09;99658.13;;;17.06;67.07
62800;BME280;48842;51.046;13.796;2022-10-15T07:18:36;99656.28;;;17.08;67.21
62800;BME280;48842;51.046;13.796;2022-10-15T07:21:03;99663.25;;;17.10;67.23
62800;BME280;48842;51.046;13.796;2022-10-15T07:23:29;99660.56;;;17.12;67.09
62800;BME280;48842;51.046;13.796;2022-10-15T07:25:59;99656.94;;;17.15;66.87
62800;BME280;48842;51.046;13.796;2022-10-15T07:28:25;99662.19;;;17.16;66.97
62800;BME280;48842;51.046;13.796;2022-10-15T07:30:50;99657.69;;;17.18;66.90
62800;BME280;48842;51.046;13.796;2022-10-15T07:33:16;99660.16;;;17.23;66.97
62800;BME280;48842;51.046;13.796;2022-10-15T07:35:41;99647.78;;;17.25;66.82
62800;BME280;48842;51.046;13.796;2022-10-15T07:38:06;99649.44;;;17.27;66.91
62800;BME280;48842;51.046;13.796;2022-10-15T07:40:31;99649.34;;;17.31;66.80
62800;BME280;48842;51.046;13.796;2022-10-15T07:42:58;99646.56;;;17.34;66.89
62800;BME280;48842;51.046;13.796;2022-10-15T07:45:24;99645.56;;;17.38;66.74
62800;BME280;48842;51.046;13.796;2022-10-15T07:47:50;99656.88;;;17.41;66.78
62800;BME280;48842;51.046;13.796;2022-10-15T07:50:15;99653.22;;;17.45;66.81
62800;BME280;48842;51.046;13.796;2022-10-15T07:52:41;99649.59;;;17.48;66.76
62800;BME280;48842;51.046;13.796;2022-10-15T07:55:06;99654.72;;;17.53;66.58
62800;BME280;48842;51.046;13.796;2022-10-15T07:57:31;99649.25;;;17.57;66.56
62800;BME280;48842;51.046;13.796;2022-10-15T07:59:57;99646.50;;;17.60;66.25
62800;BME280;48842;51.046;13.796;2022-10-15T08:02:22;99642.81;;;17.65;66.30
62800;BME280;48842;51.046;13.796;2022-10-15T08:04:47;99656.81;;;17.68;66.21
62800;BME280;48842;51.046;13.796;2022-10-15T08:07:13;99664.56;;;17.74;66.14
62800;BME280;48842;51.046;13.796;2022-10-15T08:09:38;99673.25;;;17.78;65.99
62800;BME280;48842;51.046;13.796;2022-10-15T08:12:04;99677.56;;;17.80;65.98
62800;BME280;48842;51.046;13.796;2022-10-15T08:14:31;99673.06;;;17.83;65.78
62800;BME280;48842;51.046;13.796;2022-10-15T08:16:57;99676.53;;;17.85;65.67
62800;BME280;48842;51.046;13.796;2022-10-15T08:19:22;99675.56;;;17.87;65.59
62800;BME280;48842;51.046;13.796;2022-10-15T08:21:47;99676.38;;;17.89;65.65
62800;BME280;48842;51.046;13.796;2022-10-15T08:24:12;99684.22;;;17.92;65.61
62800;BME280;48842;51.046;13.796;2022-10-15T08:26:38;99685.91;;;17.95;65.39
62800;BME280;48842;51.046;13.796;2022-10-15T08:29:03;99689.28;;;17.99;65.43
62800;BME280;48842;51.046;13.796;2022-10-15T08:31:29;99691.88;;;18.00;65.53
62800;BME280;48842;51.046;13.796;2022-10-15T08:33:58;99682.97;;;18.03;65.40
62800;BME280;48842;51.046;13.796;2022-10-15T08:36:23;99683.78;;;18.05;65.41
62800;BME280;48842;51.046;13.796;2022-10-15T08:38:49;99685.44;;;18.07;65.35
62800;BME280;48842;51.046;13.796;2022-10-15T08:44:01;99682.53;;;18.13;65.70
62800;BME280;48842;51.046;13.796;2022-10-15T08:46:34;99685.16;;;18.15;65.83
62800;BME280;48842;51.046;13.796;2022-10-15T08:49:02;99691.25;;;18.17;65.75
62800;BME280;48842;51.046;13.796;2022-10-15T08:51:33;99695.66;;;18.18;65.82
62800;BME280;48842;51.046;13.796;2022-10-15T08:54:03;99697.28;;;18.21;65.94
62800;BME280;48842;51.046;13.796;2022-10-15T08:56:33;99704.41;;;18.20;65.96
62800;BME280;48842;51.046;13.796;2022-10-15T09:02:18;99700.72;;;18.24;66.16
62800;BME280;48842;51.046;13.796;2022-10-15T09:07:42;99688.25;;;18.26;66.18
62800;BME280;48842;51.046;13.796;2022-10-15T09:10:16;99687.41;;;18.26;66.00
62800;BME280;48842;51.046;13.796;2022-10-15T09:12:47;99690.00;;;18.27;66.03
62800;BME280;48842;51.046;13.796;2022-10-15T09:15:18;99699.75;;;18.27;66.08
62800;BME280;48842;51.046;13.796;2022-10-15T09:17:47;99697.88;;;18.29;66.13
62800;BME280;48842;51.046;13.796;2022-10-15T09:20:17;99696.91;;;18.31;66.15
62800;BME280;48842;51.046;13.796;2022-10-15T09:22:44;99696.72;;;18.36;66.03
62800;BME280;48842;51.046;13.796;2022-10-15T09:25:17;99695.75;;;18.39;66.11
62800;BME280;48842;51.046;13.796;2022-10-15T09:27:45;99692.91;;;18.43;65.99
62800;BME280;48842;51.046;13.796;2022-10-15T09:32:54;99703.22;;;18.51;65.95
62800;BME280;48842;51.046;13.796;2022-10-15T09:35:25;99713.69;;;18.54;65.59
62800;BME280;48842;51.046;13.796;2022-10-15T09:42:59;99721.50;;;18.59;65.34
62800;BME280;48842;51.046;13.796;2022-10-15T09:45:25;99729.50;;;18.57;65.29
62800;BME280;48842;51.046;13.796;2022-10-15T09:47:51;99721.53;;;18.57;65.09
62800;BME280;48842;51.046;13.796;2022-10-15T09:50:20;99725.91;;;18.58;65.15
62800;BME280;48842;51.046;13.796;2022-10-15T09:55:42;99724.94;;;18.61;65.01
62800;BME280;48842;51.046;13.796;2022-10-15T09:58:22;99727.53;;;18.62;64.88
62800;BME280;48842;51.046;13.796;2022-10-15T10:00:54;99729.22;;;18.65;64.91
62800;BME280;48842;51.046;13.796;2022-10-15T10:03:22;99728.22;;;18.67;64.83
62800;BME280;48842;51.046;13.796;2022-10-15T10:05:48;99728.91;;;18.73;64.99
62800;BME280;48842;51.046;13.796;2022-10-15T10:08:21;99728.72;;;18.77;64.83
62800;BME280;48842;51.046;13.796;2022-10-15T10:10:55;99724.94;;;18.83;64.94
62800;BME280;48842;51.046;13.796;2022-10-15T10:13:24;99731.72;;;18.92;64.85
62800;BME280;48842;51.046;13.796;2022-10-15T10:15:52;99730.66;;;18.96;64.64
62800;BME280;48842;51.046;13.796;2022-10-15T10:18:23;99732.22;;;19.01;64.61
62800;BME280;48842;51.046;13.796;2022-10-15T10:21:00;99740.91;;;19.05;64.35
62800;BME280;48842;51.046;13.796;2022-10-15T10:23:31;99742.56;;;19.08;64.21
62800;BME280;48842;51.046;13.796;2022-10-15T10:26:00;99741.66;;;19.09;64.12
62800;BME280;48842;51.046;13.796;2022-10-15T10:28:36;99744.31;;;19.09;63.85
62800;BME280;48842;51.046;13.796;2022-10-15T10:31:06;99743.47;;;19.07;63.85
62800;BME280;48842;51.046;13.796;2022-10-15T10:36:05;99740.84;;;19.07;63.76
62800;BME280;48842;51.046;13.796;2022-10-15T10:38:36;99739.91;;;19.08;63.88
62800;BME280;48842;51.046;13.796;2022-10-15T10:41:10;99737.13;;;19.11;63.90
62800;BME280;48842;51.046;13.796;2022-10-15T10:43:37;99742.38;;;19.12;63.74
62800;BME280;48842;51.046;13.796;2022-10-15T10:46:05;99742.38;;;19.12;63.57
62800;BME280;48842;51.046;13.796;2022-10-15T10:48:44;99742.31;;;19.14;63.41
62800;BME280;48842;51.046;13.796;2022-10-15T10:51:18;99747.50;;;19.17;63.41
62800;BME280;48842;51.046;13.796;2022-10-15T10:53:58;99743.78;;;19.21;63.49
62800;BME280;48842;51.046;13.796;2022-10-15T10:56:37;99741.00;;;19.24;63.50
62800;BME280;48842;51.046;13.796;2022-10-15T10:59:26;99742.66;;;19.27;63.28
62800;BME280;48842;51.046;13.796;2022-10-15T11:01:55;99742.59;;;19.28;63.36
62800;BME280;48842;51.046;13.796;2022-10-15T11:04:32;99747.06;;;19.28;63.30
62800;BME280;48842;51.046;13.796;2022-10-15T11:09:52;99747.91;;;19.28;63.26
62800;BME280;48842;51.046;13.796;2022-10-15T11:15:51;99742.47;;;19.31;63.22
62800;BME280;48842;51.046;13.796;2022-10-15T11:21:13;99738.75;;;19.35;63.41
62800;BME280;48842;51.046;13.796;2022-10-15T11:26:36;99736.91;;;19.38;63.47
62800;BME280;48842;51.046;13.796;2022-10-15T11:31:46;99742.22;;;19.38;63.45
62800;BME280;48842;51.046;13.796;2022-10-15T11:34:45;99736.91;;;19.38;63.34
62800;BME280;48842;51.046;13.796;2022-10-15T11:42:52;99737.03;;;19.34;63.26
62800;BME280;48842;51.046;13.796;2022-10-15T11:45:40;99739.69;;;19.34;63.52
62800;BME280;48842;51.046;13.796;2022-10-15T11:48:22;99744.22;;;19.32;63.45
62800;BME280;48842;51.046;13.796;2022-10-15T11:50:57;99743.34;;;19.32;63.29
62800;BME280;48842;51.046;13.796;2022-10-15T11:53:30;99750.38;;;19.33;63.38
62800;BME280;48842;51.046;13.796;2022-10-15T11:56:18;99739.69;;;19.34;63.34
62800;BME280;48842;51.046;13.796;2022-10-15T11:58:49;99747.59;;;19.36;63.65
62800;BME280;48842;51.046;13.796;2022-10-15T12:01:32;99747.47;;;19.39;63.52
62800;BME280;48842;51.046;13.796;2022-10-15T12:04:05;99742.09;;;19.41;63.59
62800;BME280;48842;51.046;13.796;2022-10-15T12:06:38;99742.81;;;19.44;63.63
62800;BME280;48842;51.046;13.796;2022-10-15T12:09:05;99739.97;;;19.49;63.79
62800;BME280;48842;51.046;13.796;2022-10-15T12:11:40;99741.44;;;19.56;63.73
62800;BME280;48842;51.046;13.796;2022-10-15T12:17:18;99743.69;;;19.65;63.55
62800;BME280;48842;51.046;13.796;2022-10-15T12:19:59;99747.00;;;19.70;63.51
62800;BME280;48842;51.046;13.796;2022-10-15T12:22:32;99746.88;;;19.74;63.47
62800;BME280;48842;51.046;13.796;2022-10-15T12:24:58;99748.63;;;19.75;63.42
62800;BME280;48842;51.046;13.796;2022-10-15T12:27:30;99744.22;;;19.74;63.41
62800;BME280;48842;51.046;13.796;2022-10-15T12:32:37;99744.34;;;19.70;63.38
62800;BME280;48842;51.046;13.796;2022-10-15T12:35:16;99736.47;;;19.69;63.36
62800;BME280;48842;51.046;13.796;2022-10-15T12:37:44;99744.50;;;19.67;63.46
62800;BME280;48842;51.046;13.796;2022-10-15T12:42:49;99747.34;;;19.63;63.37
62800;BME280;48842;51.046;13.796;2022-10-15T12:45:23;99746.47;;;19.62;63.71
62800;BME280;48842;51.046;13.796;2022-10-15T12:47:54;99752.66;;;19.63;63.74
62800;BME280;48842;51.046;13.796;2022-10-15T12:50:25;99753.53;;;19.63;63.85
62800;BME280;48842;51.046;13.796;2022-10-15T12:52:51;99754.38;;;19.64;63.91
62800;BME280;48842;51.046;13.796;2022-10-15T12:57:55;99747.22;;;19.66;64.13
62800;BME280;48842;51.046;13.796;2022-10-15T13:02:51;99750.59;;;19.69;64.43
62800;BME280;48842;51.046;13.796;2022-10-15T13:05:33;99747.72;;;19.74;64.69
62800;BME280;48842;51.046;13.796;2022-10-15T13:08:01;99749.22;;;19.81;64.52
62800;BME280;48842;51.046;13.796;2022-10-15T13:10:33;99750.69;;;19.88;64.67
62800;BME280;48842;51.046;13.796;2022-10-15T13:13:02;99738.84;;;19.96;64.69
62800;BME280;48842;51.046;13.796;2022-10-15T13:15:29;99731.47;;;20.02;64.66
62800;BME280;48842;51.046;13.796;2022-10-15T13:17:58;99714.03;;;20.16;64.83
62800;BME280;48842;51.046;13.796;2022-10-15T13:20:37;99717.75;;;20.31;64.68
62800;BME280;48842;51.046;13.796;2022-10-15T13:23:09;99716.84;;;20.51;64.65
62800;BME280;48842;51.046;13.796;2022-10-15T13:25:35;99713.25;;;20.71;64.54
62800;BME280;48842;51.046;13.796;2022-10-15T13:28:00;99715.88;;;20.90;64.17
62800;BME280;48842;51.046;13.796;2022-10-15T13:30:25;99716.53;;;21.13;63.95
62800;BME280;48842;51.046;13.796;2022-10-15T13:32:52;99713.88;;;21.30;63.39
62800;BME280;48842;51.046;13.796;2022-10-15T13:35:21;99711.69;;;21.38;62.71
62800;BME280;48842;51.046;13.796;2022-10-15T13:37:47;99713.19;;;21.44;62.32
62800;BME280;48842;51.046;13.796;2022-10-15T13:40:29;99717.44;;;21.48;61.84
62800;BME280;48842;51.046;13.796;2022-10-15T13:43:14;99712.03;;;21.50;61.50
62800;BME280;48842;51.046;13.796;2022-10-15T13:45:45;99720.88;;;21.50;61.46
62800;BME280;48842;51.046;13.796;2022-10-15T13:48:11;99722.84;;;21.47;61.23
62800;BME280;48842;51.046;13.796;2022-10-15T13:50:38;99729.25;;;21.42;60.93
62800;BME280;48842;51.046;13.796;2022-10-15T13:53:20;99729.19;;;21.44;61.09
62800;BME280;48842;51.046;13.796;2022-10-15T13:55:48;99728.28;;;21.43;60.90
62800;BME280;48842;51.046;13.796;2022-10-15T14:00:48;99720.31;;;21.43;61.07
62800;BME280;48842;51.046;13.796;2022-10-15T14:03:22;99722.19;;;21.41;61.07